createdAt,value
2023-02-09T00:01:22.648Z,-5.03
2023-02-09T00:03:30.236Z,-5.08
2023-02-09T00:05:35.159Z,-5.13
2023-02-09T00:07:40.831Z,-5.15
2023-02-09T00:09:45.738Z,-5.33
2023-02-09T00:12:04.206Z,-5.43
2023-02-09T00:14:09.222Z,-5.47
2023-02-09T00:16:14.975Z,-5.47
2023-02-09T00:18:20.368Z,-5.58
2023-02-09T00:20:28.372Z,-5.62
2023-02-09T00:22:33.705Z,-5.68
2023-02-09T00:24:39.502Z,-5.72
2023-02-09T00:26:46.023Z,-5.79
2023-02-09T00:28:51.143Z,-5.85
2023-02-09T00:30:58.806Z,-5.90
2023-02-09T00:33:04.227Z,-5.90
2023-02-09T00:35:10.127Z,-5.93
2023-02-09T00:37:17.692Z,-5.99
2023-02-09T00:39:24.031Z,-5.89
2023-02-09T00:41:42.111Z,-5.90
2023-02-09T00:43:47.087Z,-6.01
2023-02-09T00:45:52.780Z,-5.92
2023-02-09T00:48:00.302Z,-5.91
2023-02-09T00:50:06.823Z,-5.83
2023-02-09T00:52:12.694Z,-5.72
2023-02-09T00:54:20.972Z,-5.45
2023-02-09T00:56:26.089Z,-5.49
2023-02-09T00:58:31.561Z,-5.56
2023-02-09T01:00:36.548Z,-5.48
2023-02-09T01:02:42.581Z,-5.52
2023-02-09T01:04:47.623Z,-5.48
2023-02-09T01:06:54.243Z,-4.93
2023-02-09T01:08:59.496Z,-4.44
2023-02-09T01:11:14.767Z,-4.18
2023-02-09T01:13:20.626Z,-4.18
2023-02-09T01:15:25.839Z,-4.10
2023-02-09T01:17:31.498Z,-3.72
2023-02-09T01:19:36.977Z,-3.65
2023-02-09T01:21:42.636Z,-3.64
2023-02-09T01:23:49.916Z,-3.53
2023-02-09T01:26:04.379Z,-3.56
2023-02-09T01:28:14.801Z,-3.68
2023-02-09T01:30:21.486Z,-3.83
2023-02-09T01:32:26.440Z,-3.99
2023-02-09T01:34:32.020Z,-4.15
2023-02-09T01:36:37.492Z,-4.38
2023-02-09T01:38:42.402Z,-4.54
2023-02-09T01:40:50.477Z,-4.61
2023-02-09T01:42:56.000Z,-4.60
2023-02-09T01:45:37.278Z,-4.77
2023-02-09T01:47:49.342Z,-4.79
2023-02-09T01:49:54.693Z,-4.96
2023-02-09T01:52:04.467Z,-5.06
2023-02-09T01:54:14.995Z,-5.20
2023-02-09T01:56:28.507Z,-5.02
2023-02-09T01:58:34.661Z,-5.15
2023-02-09T02:00:45.020Z,-5.11
2023-02-09T02:02:55.222Z,-5.15
2023-02-09T02:05:02.929Z,-5.28
2023-02-09T02:07:14.310Z,-5.11
2023-02-09T02:09:21.189Z,-5.02
2023-02-09T02:11:30.736Z,-4.94
2023-02-09T02:13:35.679Z,-4.67
2023-02-09T02:15:52.440Z,-4.63
2023-02-09T02:18:21.181Z,-4.53
2023-02-09T02:21:10.917Z,-4.52
2023-02-09T02:23:30.221Z,-4.48
2023-02-09T02:26:18.229Z,-4.62
2023-02-09T02:28:44.124Z,-4.62
2023-02-09T02:31:24.055Z,-4.68
2023-02-09T02:33:43.590Z,-4.65
2023-02-09T02:35:56.640Z,-4.80
2023-02-09T02:38:14.758Z,-4.95
2023-02-09T02:40:32.030Z,-5.14
2023-02-09T02:42:51.679Z,-5.28
2023-02-09T02:45:05.824Z,-5.36
2023-02-09T02:47:16.736Z,-5.42
2023-02-09T02:49:30.604Z,-5.42
2023-02-09T02:51:41.412Z,-5.57
2023-02-09T02:53:52.249Z,-5.63
2023-02-09T02:56:02.939Z,-5.73
2023-02-09T02:58:14.843Z,-5.70
2023-02-09T03:00:26.374Z,-5.70
2023-02-09T03:02:36.360Z,-5.81
2023-02-09T03:04:47.480Z,-5.85
2023-02-09T03:06:52.822Z,-5.81
2023-02-09T03:09:00.020Z,-5.79
2023-02-09T03:11:05.786Z,-5.80
2023-02-09T03:13:29.677Z,-5.91
2023-02-09T03:15:46.773Z,-5.91
2023-02-09T03:18:02.710Z,-5.83
2023-02-09T03:20:19.755Z,-5.85
2023-02-09T03:22:36.167Z,-6.01
2023-02-09T03:24:49.171Z,-5.95
2023-02-09T03:27:00.391Z,-6.05
2023-02-09T03:29:06.765Z,-6.09
2023-02-09T03:31:12.058Z,-6.01
2023-02-09T03:33:22.256Z,-6.10
2023-02-09T03:35:39.207Z,-6.18
2023-02-09T03:37:44.179Z,-6.20
2023-02-09T03:39:49.209Z,-6.15
2023-02-09T03:41:55.206Z,-6.13
2023-02-09T03:44:12.604Z,-6.08
2023-02-09T03:46:18.317Z,-6.28
2023-02-09T03:48:23.777Z,-6.44
2023-02-09T03:50:32.318Z,-6.57
2023-02-09T03:52:37.325Z,-6.60
2023-02-09T03:54:43.695Z,-6.56
2023-02-09T03:56:48.775Z,-6.20
2023-02-09T03:58:54.783Z,-5.94
2023-02-09T04:01:08.121Z,-5.76
2023-02-09T04:03:13.088Z,-5.61
2023-02-09T04:05:18.724Z,-5.55
2023-02-09T04:07:27.286Z,-5.79
2023-02-09T04:09:32.350Z,-6.04
2023-02-09T04:11:37.798Z,-6.06
2023-02-09T04:13:43.286Z,-6.16
2023-02-09T04:15:48.217Z,-6.22
2023-02-09T04:17:53.157Z,-6.28
2023-02-09T04:19:59.040Z,-6.29
2023-02-09T04:22:04.040Z,-6.30
2023-02-09T04:24:13.835Z,-6.39
2023-02-09T04:26:19.683Z,-6.33
2023-02-09T04:28:24.698Z,-6.41
2023-02-09T04:30:29.770Z,-6.42
2023-02-09T04:32:35.869Z,-6.53
2023-02-09T04:34:40.985Z,-6.50
2023-02-09T04:36:46.699Z,-6.45
2023-02-09T04:38:52.167Z,-6.56
2023-02-09T04:41:03.962Z,-6.58
2023-02-09T04:43:08.863Z,-6.58
2023-02-09T04:45:15.054Z,-6.72
2023-02-09T04:47:20.032Z,-6.73
2023-02-09T04:49:25.554Z,-6.82
2023-02-09T04:51:31.027Z,-6.78
2023-02-09T04:53:36.024Z,-6.70
2023-02-09T04:55:41.765Z,-6.70
2023-02-09T04:58:02.773Z,-6.58
2023-02-09T05:00:09.366Z,-6.70
2023-02-09T05:02:15.407Z,-6.75
2023-02-09T05:04:20.866Z,-6.93
2023-02-09T05:06:25.870Z,-6.96
2023-02-09T05:08:31.625Z,-6.99
2023-02-09T05:10:37.543Z,-6.95
2023-02-09T05:12:42.552Z,-6.92
2023-02-09T05:14:50.124Z,-6.92
2023-02-09T05:16:55.131Z,-7.09
2023-02-09T05:19:00.105Z,-7.19
2023-02-09T05:21:05.543Z,-7.25
2023-02-09T05:23:11.407Z,-7.26
2023-02-09T05:25:16.431Z,-7.25
2023-02-09T05:27:21.520Z,-7.32
2023-02-09T05:29:27.000Z,-7.32
2023-02-09T05:31:34.598Z,-7.37
2023-02-09T05:33:39.587Z,-7.26
2023-02-09T05:35:44.936Z,-7.39
2023-02-09T05:37:50.053Z,-7.58
2023-02-09T05:39:55.365Z,-7.46
2023-02-09T05:42:13.216Z,-7.38
2023-02-09T05:44:18.507Z,-7.49
2023-02-09T05:46:23.621Z,-7.51
2023-02-09T05:48:33.244Z,-7.56
2023-02-09T05:50:38.369Z,-7.63
2023-02-09T05:52:47.692Z,-7.62
2023-02-09T05:54:52.859Z,-7.68
2023-02-09T05:56:57.777Z,-7.60
2023-02-09T05:59:04.520Z,-7.59
2023-02-09T06:01:10.760Z,-7.60
2023-02-09T06:03:15.765Z,-7.55
2023-02-09T06:05:24.247Z,-7.59
2023-02-09T06:07:29.584Z,-7.59
2023-02-09T06:09:34.650Z,-7.67
2023-02-09T06:11:40.227Z,-7.83
2023-02-09T06:13:46.171Z,-7.80
2023-02-09T06:15:51.131Z,-7.69
2023-02-09T06:17:56.848Z,-7.60
2023-02-09T06:20:02.473Z,-7.11
2023-02-09T06:22:10.122Z,-6.78
2023-02-09T06:24:16.757Z,-6.59
2023-02-09T06:26:23.136Z,-6.27
2023-02-09T06:28:28.166Z,-6.15
2023-02-09T06:30:33.736Z,-6.06
2023-02-09T06:32:38.712Z,-6.06
2023-02-09T06:34:44.275Z,-6.02
2023-02-09T06:36:50.024Z,-5.87
2023-02-09T06:38:57.619Z,-5.80
2023-02-09T06:41:02.681Z,-5.78
2023-02-09T06:43:07.760Z,-5.79
2023-02-09T06:45:13.749Z,-5.79
2023-02-09T06:47:19.191Z,-5.74
2023-02-09T06:49:25.436Z,-5.69
2023-02-09T06:51:31.528Z,-5.61
2023-02-09T06:53:36.627Z,-5.61
2023-02-09T06:55:44.191Z,-5.62
2023-02-09T06:57:49.754Z,-5.58
2023-02-09T06:59:56.532Z,-5.65
2023-02-09T07:02:03.026Z,-5.69
2023-02-09T07:04:09.676Z,-5.69
2023-02-09T07:06:18.400Z,-5.67
2023-02-09T07:08:24.761Z,-5.67
2023-02-09T07:10:30.759Z,-5.80
2023-02-09T07:12:40.901Z,-5.89
2023-02-09T07:14:46.658Z,-5.95
2023-02-09T07:16:52.749Z,-5.99
2023-02-09T07:19:00.296Z,-6.03
2023-02-09T07:21:12.065Z,-6.04
2023-02-09T07:23:17.567Z,-6.02
2023-02-09T07:25:22.591Z,-6.00
2023-02-09T07:27:27.728Z,-6.00
2023-02-09T07:29:36.296Z,-6.03
2023-02-09T07:31:41.331Z,-5.93
2023-02-09T07:33:46.981Z,-5.89
2023-02-09T07:35:52.188Z,-5.81
2023-02-09T07:37:57.361Z,-5.69
2023-02-09T07:40:02.364Z,-5.45
2023-02-09T07:42:07.614Z,-5.33
2023-02-09T07:44:28.022Z,-5.12
2023-02-09T07:46:35.919Z,-5.03
2023-02-09T07:48:40.955Z,-4.94
2023-02-09T07:50:51.821Z,-4.86
2023-02-09T07:52:56.958Z,-4.61
2023-02-09T07:55:01.908Z,-4.50
2023-02-09T07:57:06.956Z,-4.43
2023-02-09T07:59:14.202Z,-4.32
2023-02-09T08:01:20.281Z,-4.29
2023-02-09T08:03:27.840Z,-4.10
2023-02-09T08:05:40.053Z,-4.00
2023-02-09T08:07:45.929Z,-3.94
2023-02-09T08:09:50.837Z,-3.87
2023-02-09T08:12:00.004Z,-3.57
2023-02-09T08:14:09.248Z,-3.42
2023-02-09T08:16:20.388Z,-3.26
2023-02-09T08:18:34.624Z,-3.13
2023-02-09T08:20:39.779Z,-3.11
2023-02-09T08:22:49.108Z,-2.98
2023-02-09T08:24:54.606Z,-2.93
2023-02-09T08:26:59.584Z,-2.85
2023-02-09T08:29:05.088Z,-2.81
2023-02-09T08:31:10.413Z,-2.78
2023-02-09T08:33:15.478Z,-2.66
2023-02-09T08:35:23.296Z,-2.59
2023-02-09T08:37:28.362Z,-2.50
2023-02-09T08:39:33.547Z,-2.46
2023-02-09T08:41:39.072Z,-2.32
2023-02-09T08:43:44.362Z,-2.30
2023-02-09T08:45:49.837Z,-2.22
2023-02-09T08:47:55.187Z,-2.20
2023-02-09T08:50:00.396Z,-2.14
2023-02-09T08:52:08.708Z,-2.11
2023-02-09T08:54:13.723Z,-2.01
2023-02-09T08:56:18.653Z,-1.96
2023-02-09T08:58:24.563Z,-1.93
2023-02-09T09:00:29.940Z,-1.91
2023-02-09T09:02:36.110Z,-1.76
2023-02-09T09:04:41.048Z,-1.76
2023-02-09T09:06:48.494Z,-1.70
2023-02-09T09:08:56.482Z,-1.56
2023-02-09T09:11:02.680Z,-1.51
2023-02-09T09:13:07.596Z,-1.43
2023-02-09T09:15:13.253Z,-1.33
2023-02-09T09:17:18.848Z,-1.24
2023-02-09T09:19:23.804Z,-1.14
2023-02-09T09:21:28.888Z,-1.11
2023-02-09T09:23:34.996Z,-0.97
2023-02-09T09:25:45.213Z,-0.91
2023-02-09T09:27:50.583Z,-0.79
2023-02-09T09:29:55.580Z,-0.64
2023-02-09T09:32:00.844Z,-0.54
2023-02-09T09:34:06.684Z,-0.49
2023-02-09T09:36:15.570Z,-0.41
2023-02-09T09:38:20.861Z,-0.35
2023-02-09T09:40:29.981Z,-0.28
2023-02-09T09:42:43.460Z,-0.14
2023-02-09T09:44:48.693Z,-0.10
2023-02-09T09:47:01.182Z,0.00
2023-02-09T09:49:07.426Z,0.03
2023-02-09T09:51:18.151Z,0.10
2023-02-09T09:53:33.370Z,0.24
2023-02-09T09:55:40.387Z,0.25
2023-02-09T09:57:48.716Z,0.30
2023-02-09T09:59:56.297Z,0.40
2023-02-09T10:02:14.803Z,0.46
2023-02-09T10:04:20.871Z,0.59
2023-02-09T10:06:26.826Z,0.71
2023-02-09T10:08:37.808Z,0.69
2023-02-09T10:10:49.911Z,0.79
2023-02-09T10:12:58.553Z,0.85
2023-02-09T10:15:28.244Z,1.04
2023-02-09T10:17:33.186Z,1.13
2023-02-09T10:19:38.165Z,1.19
2023-02-09T10:21:43.121Z,1.16
2023-02-09T10:23:50.895Z,1.27
2023-02-09T10:26:06.318Z,1.35
2023-02-09T10:28:23.337Z,1.44
2023-02-09T10:30:31.618Z,1.52
2023-02-09T10:32:43.497Z,1.59
2023-02-09T10:34:52.674Z,1.49
2023-02-09T10:37:15.680Z,1.46
2023-02-09T10:39:24.330Z,1.63
2023-02-09T10:41:29.516Z,1.66
2023-02-09T10:43:38.327Z,1.75
2023-02-09T10:45:47.302Z,1.83
2023-02-09T10:48:02.480Z,1.88
2023-02-09T10:50:21.680Z,2.02
2023-02-09T10:52:29.442Z,2.06
2023-02-09T10:54:34.435Z,2.04
2023-02-09T10:56:49.160Z,2.10
2023-02-09T10:59:04.087Z,2.27
2023-02-09T11:01:20.779Z,2.33
2023-02-09T11:03:28.075Z,2.22
2023-02-09T11:05:37.358Z,2.43
2023-02-09T11:07:44.765Z,2.39
2023-02-09T11:09:53.199Z,2.55
2023-02-09T11:11:58.510Z,2.62
2023-02-09T11:14:12.651Z,2.58
2023-02-09T11:16:39.257Z,2.84
2023-02-09T11:18:48.602Z,2.83
2023-02-09T11:20:58.284Z,2.91
2023-02-09T11:23:35.745Z,3.01
2023-02-09T11:25:48.397Z,3.24
2023-02-09T11:28:21.171Z,3.31
2023-02-09T11:30:51.190Z,3.13
2023-02-09T11:32:59.938Z,3.35
2023-02-09T11:35:12.867Z,3.45
2023-02-09T11:37:32.244Z,3.57
2023-02-09T11:39:47.151Z,3.57
2023-02-09T11:42:12.725Z,3.52
2023-02-09T11:44:29.288Z,3.32
2023-02-09T11:46:39.499Z,3.41
2023-02-09T11:48:49.792Z,3.24
2023-02-09T11:51:06.850Z,3.09
2023-02-09T11:53:24.093Z,3.12
2023-02-09T11:55:34.991Z,3.21
2023-02-09T11:57:47.845Z,3.23
2023-02-09T12:00:00.889Z,3.20
2023-02-09T12:02:39.644Z,3.25
2023-02-09T12:04:50.651Z,3.48
2023-02-09T12:06:59.812Z,3.36
2023-02-09T12:09:18.152Z,3.40
2023-02-09T12:11:39.635Z,3.41
2023-02-09T12:14:19.296Z,3.67
2023-02-09T12:16:31.103Z,3.61
2023-02-09T12:18:39.885Z,3.57
2023-02-09T12:20:55.829Z,3.58
2023-02-09T12:23:08.392Z,3.71
2023-02-09T12:25:40.057Z,3.90
2023-02-09T12:27:47.117Z,4.00
2023-02-09T12:29:52.083Z,3.99
2023-02-09T12:32:26.672Z,3.90
2023-02-09T12:34:43.593Z,3.70
2023-02-09T12:37:18.661Z,3.69
2023-02-09T12:39:28.133Z,4.00
2023-02-09T12:41:54.643Z,4.07
2023-02-09T12:44:42.290Z,4.56
2023-02-09T12:46:55.733Z,4.65
2023-02-09T12:49:20.930Z,4.57
2023-02-09T12:51:53.417Z,4.68
2023-02-09T12:53:58.988Z,4.75
2023-02-09T12:56:25.127Z,4.83
2023-02-09T12:58:42.781Z,4.66
2023-02-09T13:01:00.226Z,4.81
2023-02-09T13:03:17.012Z,4.98
2023-02-09T13:05:26.572Z,5.56
2023-02-09T13:07:47.221Z,5.81
2023-02-09T13:09:54.873Z,5.91
2023-02-09T13:12:08.256Z,6.27
2023-02-09T13:14:17.428Z,6.57
2023-02-09T13:17:12.475Z,7.18
2023-02-09T13:19:33.805Z,7.29
2023-02-09T13:22:01.461Z,7.67
2023-02-09T13:24:12.118Z,7.72
2023-02-09T13:26:24.478Z,7.69
2023-02-09T13:28:29.469Z,7.47
2023-02-09T13:30:36.059Z,7.90
2023-02-09T13:32:57.473Z,8.10
2023-02-09T13:35:08.599Z,8.26
2023-02-09T13:37:29.913Z,8.52
2023-02-09T13:39:39.710Z,8.97
2023-02-09T13:41:45.647Z,9.13
2023-02-09T13:43:52.036Z,9.41
2023-02-09T13:45:59.634Z,8.74
2023-02-09T13:48:24.193Z,9.07
2023-02-09T13:50:32.034Z,9.47
2023-02-09T13:52:40.165Z,9.40
2023-02-09T13:54:46.111Z,9.50
2023-02-09T13:56:52.083Z,9.78
2023-02-09T13:58:58.324Z,10.18
2023-02-09T14:01:07.975Z,8.97
2023-02-09T14:03:22.809Z,8.48
2023-02-09T14:05:36.672Z,8.53
2023-02-09T14:07:41.811Z,9.26
2023-02-09T14:09:52.453Z,9.86
2023-02-09T14:12:02.322Z,9.49
2023-02-09T14:14:11.860Z,9.44
2023-02-09T14:16:18.708Z,9.69
2023-02-09T14:18:45.457Z,9.93
2023-02-09T14:21:04.182Z,9.34
2023-02-09T14:23:18.548Z,8.71
2023-02-09T14:25:27.480Z,8.53
2023-02-09T14:27:36.743Z,8.53
2023-02-09T14:29:50.120Z,8.54
2023-02-09T14:31:57.498Z,8.63
2023-02-09T14:34:05.823Z,9.11
2023-02-09T14:36:27.391Z,8.87
2023-02-09T14:38:42.665Z,9.25
2023-02-09T14:40:48.777Z,9.44
2023-02-09T14:43:03.024Z,9.54
2023-02-09T14:45:32.665Z,9.41
2023-02-09T14:47:44.545Z,9.73
2023-02-09T14:49:52.073Z,9.83
2023-02-09T14:52:10.075Z,9.50
2023-02-09T14:54:29.270Z,8.65
2023-02-09T14:56:35.452Z,7.93
2023-02-09T14:58:40.390Z,7.29
2023-02-09T15:00:46.403Z,7.38
2023-02-09T15:02:53.601Z,7.84
2023-02-09T15:05:01.961Z,7.96
2023-02-09T15:07:08.481Z,7.85
2023-02-09T15:09:20.238Z,8.23
2023-02-09T15:11:42.509Z,8.36
2023-02-09T15:13:51.092Z,8.47
2023-02-09T15:15:57.348Z,8.21
2023-02-09T15:18:03.611Z,7.82
2023-02-09T15:20:13.570Z,7.77
2023-02-09T15:22:19.273Z,7.54
2023-02-09T15:24:24.227Z,7.21
2023-02-09T15:26:30.444Z,6.93
2023-02-09T15:28:35.491Z,6.98
2023-02-09T15:30:41.081Z,6.56
2023-02-09T15:32:46.538Z,5.96
2023-02-09T15:34:52.996Z,5.73
2023-02-09T15:37:01.691Z,5.69
2023-02-09T15:39:15.572Z,5.51
2023-02-09T15:41:35.830Z,5.55
2023-02-09T15:43:53.914Z,5.01
2023-02-09T15:46:11.607Z,4.84
2023-02-09T15:48:18.061Z,4.77
2023-02-09T15:50:23.024Z,4.48
2023-02-09T15:52:31.410Z,4.30
2023-02-09T15:54:37.139Z,4.08
2023-02-09T15:56:44.170Z,3.63
2023-02-09T15:58:52.492Z,3.43
2023-02-09T16:00:57.539Z,3.10
2023-02-09T16:03:04.211Z,2.82
2023-02-09T16:05:11.990Z,2.57
2023-02-09T16:07:25.422Z,2.33
2023-02-09T16:09:34.787Z,2.09
2023-02-09T16:11:43.555Z,1.86
2023-02-09T16:13:48.603Z,1.62
2023-02-09T16:15:56.899Z,1.35
2023-02-09T16:18:05.645Z,1.16
2023-02-09T16:20:12.268Z,0.96
2023-02-09T16:22:22.681Z,0.71
2023-02-09T16:24:37.186Z,0.52
2023-02-09T16:26:42.151Z,0.31
2023-02-09T16:28:47.245Z,0.07
2023-02-09T16:30:57.721Z,-0.10
2023-02-09T16:33:02.822Z,-0.23
2023-02-09T16:35:16.770Z,-0.34
2023-02-09T16:37:31.410Z,-0.41
2023-02-09T16:39:38.950Z,-0.43
2023-02-09T16:41:50.766Z,-0.40
2023-02-09T16:43:57.043Z,-0.37
2023-02-09T16:46:06.107Z,-0.53
2023-02-09T16:48:23.111Z,-0.65
2023-02-09T16:50:33.208Z,-0.84
2023-02-09T16:52:39.346Z,-0.99
2023-02-09T16:54:51.451Z,-1.17
2023-02-09T16:56:56.648Z,-1.28
2023-02-09T16:59:01.601Z,-1.36
2023-02-09T17:01:07.449Z,-1.51
2023-02-09T17:03:19.823Z,-1.64
2023-02-09T17:05:29.776Z,-1.70
2023-02-09T17:07:53.282Z,-1.76
2023-02-09T17:10:02.102Z,-1.73
2023-02-09T17:12:07.503Z,-1.78
2023-02-09T17:14:13.342Z,-1.80
2023-02-09T17:16:22.545Z,-1.80
2023-02-09T17:18:31.726Z,-1.94
2023-02-09T17:20:43.709Z,-2.04
2023-02-09T17:22:52.028Z,-2.06
2023-02-09T17:24:56.978Z,-2.13
2023-02-09T17:27:04.515Z,-2.13
2023-02-09T17:29:09.602Z,-2.24
2023-02-09T17:31:20.610Z,-2.29
2023-02-09T17:33:29.023Z,-2.31
2023-02-09T17:36:10.025Z,-2.33
2023-02-09T17:38:04.796Z,-2.37
2023-02-09T17:40:10.962Z,-2.37
2023-02-09T17:42:24.900Z,-2.39
2023-02-09T17:44:45.442Z,-2.45
2023-02-09T17:46:52.140Z,-2.50
2023-02-09T17:48:57.123Z,-2.55
2023-02-09T17:51:03.036Z,-2.54
2023-02-09T17:53:15.344Z,-2.53
2023-02-09T17:55:25.546Z,-2.59
2023-02-09T17:57:33.097Z,-2.69
2023-02-09T17:59:38.104Z,-2.61
2023-02-09T18:01:45.809Z,-2.56
2023-02-09T18:03:51.750Z,-2.67
2023-02-09T18:06:03.058Z,-2.67
2023-02-09T18:08:08.028Z,-2.63
2023-02-09T18:10:13.276Z,-2.61
2023-02-09T18:12:23.256Z,-2.68
2023-02-09T18:14:33.837Z,-2.66
2023-02-09T18:16:39.214Z,-2.67
2023-02-09T18:18:45.031Z,-2.66
2023-02-09T18:20:51.112Z,-2.66
2023-02-09T18:22:56.115Z,-2.66
2023-02-09T18:25:01.464Z,-2.67
2023-02-09T18:27:08.431Z,-2.58
2023-02-09T18:29:13.456Z,-2.59
2023-02-09T18:31:21.996Z,-2.51
2023-02-09T18:33:27.067Z,-2.48
2023-02-09T18:35:38.217Z,-2.39
2023-02-09T18:37:47.186Z,-2.33
2023-02-09T18:39:52.187Z,-2.29
2023-02-09T18:41:57.102Z,-2.28
2023-02-09T18:44:02.840Z,-2.29
2023-02-09T18:46:08.541Z,-2.24
2023-02-09T18:48:16.251Z,-2.20
2023-02-09T18:50:23.776Z,-2.26
2023-02-09T18:52:28.985Z,-2.30
2023-02-09T18:54:35.143Z,-2.31
2023-02-09T18:56:40.127Z,-2.32
2023-02-09T18:58:45.044Z,-2.32
2023-02-09T19:00:52.917Z,-2.29
2023-02-09T19:03:00.534Z,-2.23
2023-02-09T19:05:10.035Z,-2.21
2023-02-09T19:07:16.421Z,-2.26
2023-02-09T19:09:21.654Z,-2.23
2023-02-09T19:11:26.695Z,-2.18
2023-02-09T19:13:34.088Z,-2.25
2023-02-09T19:15:41.409Z,-2.33
2023-02-09T19:17:47.859Z,-2.41
2023-02-09T19:19:53.651Z,-2.48
2023-02-09T19:22:01.246Z,-2.57
2023-02-09T19:24:06.986Z,-2.65
2023-02-09T19:26:13.568Z,-2.73
2023-02-09T19:28:18.635Z,-2.77
2023-02-09T19:30:28.982Z,-2.81
2023-02-09T19:32:34.266Z,-2.87
2023-02-09T19:34:43.137Z,-2.96
2023-02-09T19:36:48.668Z,-2.95
2023-02-09T19:38:56.316Z,-3.05
2023-02-09T19:41:10.772Z,-3.14
2023-02-09T19:43:16.348Z,-3.25
2023-02-09T19:45:21.851Z,-3.32
2023-02-09T19:47:28.393Z,-3.33
2023-02-09T19:49:34.453Z,-3.32
2023-02-09T19:51:40.256Z,-3.33
2023-02-09T19:53:45.313Z,-3.39
2023-02-09T19:55:55.040Z,-3.49
2023-02-09T19:58:00.155Z,-3.54
2023-02-09T20:00:06.245Z,-3.60
2023-02-09T20:02:14.884Z,-3.61
2023-02-09T20:04:19.842Z,-3.61
2023-02-09T20:06:26.494Z,-3.64
2023-02-09T20:08:31.428Z,-3.65
2023-02-09T20:10:36.853Z,-3.68
2023-02-09T20:15:10.931Z,-3.76
2023-02-09T20:17:15.822Z,-3.86
2023-02-09T20:19:20.743Z,-3.89
2023-02-09T20:21:26.685Z,-3.90
2023-02-09T20:23:31.622Z,-3.91
2023-02-09T20:25:36.772Z,-3.98
2023-02-09T20:27:44.365Z,-4.05
2023-02-09T20:29:49.454Z,-4.05
2023-02-09T20:31:55.167Z,-4.07
2023-02-09T20:34:00.399Z,-4.11
2023-02-09T20:36:08.614Z,-4.17
2023-02-09T20:38:14.560Z,-4.26
2023-02-09T20:40:20.236Z,-4.31
2023-02-09T20:42:37.907Z,-4.34
2023-02-09T20:44:58.379Z,-4.27
2023-02-09T20:47:03.326Z,-4.33
2023-02-09T20:49:09.221Z,-4.43
2023-02-09T20:51:14.317Z,-4.57
2023-02-09T20:53:19.730Z,-4.63
2023-02-09T20:55:24.637Z,-4.61
2023-02-09T20:57:31.987Z,-4.62
2023-02-09T20:59:37.020Z,-4.61
2023-02-09T21:01:46.014Z,-4.75
2023-02-09T21:03:50.986Z,-4.72
2023-02-09T21:05:55.892Z,-4.69
2023-02-09T21:08:04.262Z,-4.72
2023-02-09T21:10:12.954Z,-4.85
2023-02-09T21:12:18.061Z,-4.88
2023-02-09T21:14:32.289Z,-4.89
2023-02-09T21:16:46.078Z,-4.97
2023-02-09T21:18:51.061Z,-5.01
2023-02-09T21:20:56.327Z,-5.01
2023-02-09T21:23:01.228Z,-5.04
2023-02-09T21:25:06.183Z,-4.97
2023-02-09T21:27:11.760Z,-5.04
2023-02-09T21:29:17.353Z,-5.04
2023-02-09T21:31:25.069Z,-5.04
2023-02-09T21:33:32.682Z,-5.05
2023-02-09T21:35:41.113Z,-5.10
2023-02-09T21:37:46.084Z,-5.07
2023-02-09T21:39:51.136Z,-5.05
2023-02-09T21:42:09.430Z,-4.98
2023-02-09T21:44:15.158Z,-5.01
2023-02-09T21:46:20.683Z,-4.98
2023-02-09T21:48:26.117Z,-5.00
2023-02-09T21:50:34.397Z,-5.10
2023-02-09T21:52:39.388Z,-5.12
2023-02-09T21:54:44.346Z,-5.15
2023-02-09T21:56:49.333Z,-5.14
2023-02-09T21:58:54.345Z,-5.09
2023-02-09T22:01:00.858Z,-5.10
2023-02-09T22:03:05.845Z,-5.16
2023-02-09T22:05:11.688Z,-5.16
2023-02-09T22:07:19.493Z,-5.09
2023-02-09T22:09:25.180Z,-5.17
2023-02-09T22:11:30.202Z,-5.20
2023-02-09T22:13:36.160Z,-5.22
2023-02-09T22:15:43.471Z,-5.24
2023-02-09T22:17:49.284Z,-5.30
2023-02-09T22:19:54.689Z,-5.35
2023-02-09T22:22:01.139Z,-5.41
2023-02-09T22:24:10.513Z,-5.42
2023-02-09T22:26:16.409Z,-5.42
2023-02-09T22:28:21.603Z,-5.43
2023-02-09T22:30:26.629Z,-5.48
2023-02-09T22:32:34.042Z,-5.60
2023-02-09T22:34:39.167Z,-5.68
2023-02-09T22:36:45.332Z,-5.57
2023-02-09T22:38:53.578Z,-5.59
2023-02-09T22:41:07.127Z,-5.56
2023-02-09T22:43:12.049Z,-5.56
2023-02-09T22:45:17.268Z,-5.52
2023-02-09T22:47:22.192Z,-5.48
2023-02-09T22:49:27.134Z,-5.57
2023-02-09T22:51:34.586Z,-5.65
2023-02-09T22:53:39.533Z,-5.71
2023-02-09T22:55:46.435Z,-5.72
2023-02-09T22:57:54.179Z,-5.68
2023-02-09T22:59:59.098Z,-5.69
2023-02-09T23:02:04.036Z,-5.66
2023-02-09T23:04:09.085Z,-5.64
2023-02-09T23:06:23.389Z,-5.62
2023-02-09T23:08:28.399Z,-5.61
2023-02-09T23:10:33.995Z,-5.69
2023-02-09T23:12:38.955Z,-5.77
2023-02-09T23:14:46.685Z,-5.76
2023-02-09T23:16:51.672Z,-5.69
2023-02-09T23:18:58.786Z,-5.76
2023-02-09T23:21:04.819Z,-5.71
2023-02-09T23:23:11.463Z,-5.64
2023-02-09T23:25:16.545Z,-5.66
2023-02-09T23:27:21.522Z,-5.75
2023-02-09T23:29:26.900Z,-5.77
2023-02-09T23:31:34.936Z,-5.80
2023-02-09T23:33:40.397Z,-5.85
2023-02-09T23:35:48.625Z,-5.87
2023-02-09T23:37:53.753Z,-5.90
2023-02-09T23:39:58.660Z,-6.00
2023-02-09T23:42:03.563Z,-5.96
2023-02-09T23:44:08.580Z,-5.98
2023-02-09T23:46:19.545Z,-5.96
2023-02-09T23:48:27.097Z,-6.02
2023-02-09T23:50:32.041Z,-6.10
2023-02-09T23:52:36.990Z,-6.08
2023-02-09T23:54:42.082Z,-5.96
2023-02-09T23:56:47.094Z,-5.98
2023-02-09T23:58:54.430Z,-5.93
